TAF

Aerodrome Forecast TAF

TAF description (Slovak)

19.09.2018 - 05:00 UTC

TAF AMD LZSL 190559Z 1906/1915 VRB02KT 9999 SCT003
    BECMG 1906/1908 CAVOK
    BECMG 1911/1913 19008KT=

19.09.2018 - 05:00 UTC

TAF LZIB 190500Z 1906/2006 05004KT CAVOK
    BECMG 1908/1910 14006KT 9999 FEW045 SCT100
    TEMPO 1910/1915 20008KT SCT040
    BECMG 1918/1920 VRB02KT=
TAF LZKZ 190500Z 1906/2006 VRB02KT CAVOK
    BECMG 1909/1911 21008KT
    BECMG 1917/1919 VRB02KT
    BECMG 2004/2006 35004KT=
TAF LZTT 190500Z 1906/2006 VRB02KT CAVOK
    BECMG 1908/1910 26007KT
    TEMPO 1910/1916 9999 FEW055
    BECMG 1916/1918 VRB02KT
    PROB40 TEMPO 2002/2006 2500 BCFG FEW001=

19.09.2018 - 05:00 UTC

TAF LZSL 190500Z 1906/1915 VRB02KT 2000 BCFG SCT003
    PROB40 TEMPO 1906/1907 0600 FG SCT001
    BECMG 1907/1909 CAVOK
    BECMG 1911/1913 19008KT=
TAF LZPP 190500Z 1906/1915 VRB02KT CAVOK
    BECMG 1907/1909 15006KT
    TEMPO 1910/1915 17010KT 9999 FEW045=
TAF LZZI 190500Z 1906/1915 VRB02KT CAVOK
    PROB40 TEMPO 1906/1907 9999 MIFG FEW001
    BECMG 1910/1912 25007KT=

19.09.2018 - 02:00 UTC

TAF LZSL 190200Z 1903/1912 VRB02KT CAVOK
    TEMPO 1903/1906 4000 BR FEW003
    PROB40 TEMPO 1903/1906 0600 FG SCT001=
TAF LZZI 190200Z 1903/1912 VRB02KT CAVOK
    PROB40 TEMPO 1903/1906 2000 BCFG FEW002=

skok na menu ↑


skok na začiatok stránky ↑